Time;durP1;ratioP1;P1;durP2;ratioP2;P2;SDS_P1;SDS_P2;PMS_P1;PMS_P2;Temp;Humidity;BMP_temperature;BMP_pressure;BME280_temperature;BME280_humidity;BME280_pressure;Samples;Min_cycle;Max_cycle;Signal;HPM_P1;HPM_P2
2022/04/28 00:00:19;;;;;;;8.60;6.87;;;;;;;8.27;62.97;102055.16;5067553;28;20303;-72
2022/04/28 00:02:46;;;;;;;8.57;7.00;;;;;;;8.24;62.54;102057.06;5067157;28;20212;-69
2022/04/28 00:05:14;;;;;;;10.73;7.37;;;;;;;8.20;62.68;102066.88;5059068;28;20722;-70
2022/04/28 00:07:42;;;;;;;12.67;7.80;;;;;;;8.16;63.49;102057.28;5066926;28;20193;-72
2022/04/28 00:10:10;;;;;;;9.87;7.80;;;;;;;8.13;63.40;102057.38;5067967;28;20224;-70
2022/04/28 00:12:37;;;;;;;8.40;6.73;;;;;;;8.12;63.63;102054.75;5067475;28;20599;-70
2022/04/28 00:15:04;;;;;;;10.63;7.57;;;;;;;8.10;63.41;102057.44;5066510;28;20207;-70
2022/04/28 00:17:31;;;;;;;8.17;7.00;;;;;;;8.08;64.26;102059.28;5067070;28;20255;-70
2022/04/28 00:19:58;;;;;;;13.33;7.03;;;;;;;8.08;64.80;102053.97;5066823;28;20598;-69
2022/04/28 00:22:26;;;;;;;10.63;7.53;;;;;;;8.06;64.42;102057.63;5067092;28;20208;-69
2022/04/28 00:24:53;;;;;;;9.33;7.50;;;;;;;8.02;64.07;102055.06;5060055;28;20722;-70
2022/04/28 00:27:20;;;;;;;11.70;7.33;;;;;;;7.98;64.49;102053.41;5067511;28;20215;-70
2022/04/28 00:29:47;;;;;;;11.50;7.57;;;;;;;7.97;65.02;102053.44;5066904;28;20232;-68
2022/04/28 00:32:13;;;;;;;9.63;7.00;;;;;;;7.97;65.44;102056.09;5061344;28;20288;-70
2022/04/28 00:34:40;;;;;;;12.47;7.80;;;;;;;7.95;64.77;102060.56;5066758;28;20197;-70
2022/04/28 00:37:09;;;;;;;9.13;7.07;;;;;;;7.94;65.59;102061.50;5067232;28;20572;-70
2022/04/28 00:39:38;;;;;;;7.13;6.07;;;;;;;7.93;65.40;102060.63;5065681;28;20212;-72
2022/04/28 00:42:09;;;;;;;10.47;6.23;;;;;;;7.90;65.73;102066.00;5066945;28;20209;-70
2022/04/28 00:44:36;;;;;;;10.27;6.50;;;;;;;7.89;65.67;102071.34;5059886;28;20228;-72
2022/04/28 00:47:02;;;;;;;10.57;6.03;;;;;;;7.87;65.29;102068.78;5065175;28;20342;-69
2022/04/28 00:52:13;;;;;;;10.03;6.30;;;;;;;7.82;66.42;102070.69;5069488;28;20204;-68
2022/04/28 00:54:42;;;;;;;10.17;6.67;;;;;;;7.78;65.25;102079.66;5070664;28;20208;-71
2022/04/28 00:57:10;;;;;;;9.67;6.90;;;;;;;7.75;65.95;102065.59;5069257;28;20212;-71
2022/04/28 00:59:38;;;;;;;10.97;6.33;;;;;;;7.69;65.12;102068.44;5070076;28;20220;-70
2022/04/28 01:02:04;;;;;;;12.03;7.60;;;;;;;7.64;65.38;102069.44;5069684;28;20287;-70
2022/04/28 01:04:31;;;;;;;10.00;6.43;;;;;;;7.58;66.30;102066.94;5070020;28;20666;-71
2022/04/28 01:06:58;;;;;;;8.93;7.07;;;;;;;7.55;66.26;102069.69;5070201;28;20254;-70
2022/04/28 01:09:24;;;;;;;11.93;7.03;;;;;;;7.49;66.25;102071.66;5069818;28;20225;-70
2022/04/28 01:11:52;;;;;;;9.40;6.50;;;;;;;7.39;65.39;102075.47;5070273;28;20201;-70
2022/04/28 01:14:18;;;;;;;8.00;7.20;;;;;;;7.28;65.82;102073.13;5070139;28;20224;-68
2022/04/28 01:16:45;;;;;;;11.03;6.97;;;;;;;7.23;66.14;102078.53;5081864;28;20211;-71
2022/04/28 01:19:11;;;;;;;12.43;7.57;;;;;;;7.18;66.66;102072.47;5076496;28;20570;-70
2022/04/28 01:21:39;;;;;;;8.40;6.63;;;;;;;7.15;66.89;102077.88;5070028;28;20443;-68
2022/04/28 01:24:06;;;;;;;11.00;7.83;;;;;;;7.09;66.17;102077.16;5070399;28;20289;-70
2022/04/28 01:26:34;;;;;;;9.87;7.40;;;;;;;7.01;66.94;102073.81;5069379;28;20717;-70
2022/04/28 01:29:01;;;;;;;9.37;7.20;;;;;;;6.96;67.04;102080.13;5070331;28;20244;-71
2022/04/28 01:31:27;;;;;;;16.80;9.07;;;;;;;6.93;67.24;102084.63;5069618;28;20659;-70
2022/04/28 01:33:54;;;;;;;10.47;8.07;;;;;;;6.91;67.12;102083.81;5070188;28;20211;-67
2022/04/28 01:36:20;;;;;;;11.33;8.07;;;;;;;6.86;67.06;102075.09;5068817;28;20697;-69
2022/04/28 01:38:48;;;;;;;13.23;7.53;;;;;;;6.82;67.73;102081.38;5069554;28;20236;-70
2022/04/28 01:41:14;;;;;;;9.00;6.87;;;;;;;6.75;67.58;102083.31;5064207;28;20217;-69
2022/04/28 01:43:41;;;;;;;10.57;6.90;;;;;;;6.67;67.53;102081.75;5075060;28;20200;-69
2022/04/28 01:46:08;;;;;;;10.73;7.00;;;;;;;6.57;67.36;102083.75;5073147;28;20224;-71
2022/04/28 01:48:34;;;;;;;11.03;7.50;;;;;;;6.47;67.25;102084.88;5069121;28;20611;-68
2022/04/28 01:56:30;;;;;;;12.70;7.87;;;;;;;6.28;68.90;102087.94;5066618;28;20208;-71
2022/04/28 01:58:56;;;;;;;12.20;7.90;;;;;;;6.28;69.15;102084.44;5069321;28;20726;-71
2022/04/28 02:01:23;;;;;;;10.27;7.20;;;;;;;6.27;69.04;102088.84;5069278;28;20209;-70
2022/04/28 02:03:50;;;;;;;12.80;7.13;;;;;;;6.19;68.69;102085.50;5069435;28;20208;-69
2022/04/28 02:06:17;;;;;;;9.57;7.03;;;;;;;6.09;68.50;102089.25;5069306;28;20245;-70
2022/04/28 02:08:45;;;;;;;9.50;6.83;;;;;;;6.01;68.86;102091.22;5069450;28;20267;-70
2022/04/28 02:11:11;;;;;;;9.43;7.13;;;;;;;5.95;68.79;102087.81;5069736;28;20208;-70
2022/04/28 02:13:40;;;;;;;11.93;7.30;;;;;;;5.90;68.82;102082.66;5069191;28;20216;-71
2022/04/28 02:16:06;;;;;;;13.97;8.03;;;;;;;5.83;68.76;102088.91;5069181;28;20240;-71
2022/04/28 02:18:33;;;;;;;9.77;7.27;;;;;;;5.75;68.90;102089.06;5068776;28;20243;-70
2022/04/28 02:20:59;;;;;;;11.30;7.90;;;;;;;5.70;69.27;102093.59;5069268;28;20216;-70
2022/04/28 02:23:26;;;;;;;9.90;7.80;;;;;;;5.65;69.57;102091.94;5068714;28;20224;-69
2022/04/28 02:25:52;;;;;;;10.57;7.57;;;;;;;5.58;69.36;102086.75;5068687;28;20223;-71
2022/04/28 02:28:19;;;;;;;13.93;8.53;;;;;;;5.53;69.87;102083.38;5068448;28;20212;-72
2022/04/28 02:30:47;;;;;;;13.30;8.57;;;;;;;5.52;70.41;102078.97;5049441;28;20248;-70
2022/04/28 02:33:13;;;;;;;12.13;8.00;;;;;;;5.53;70.62;102091.28;5053302;28;20197;-70
2022/04/28 02:35:40;;;;;;;11.57;8.77;;;;;;;5.51;70.82;102085.16;5068990;28;20412;-72
2022/04/28 02:38:07;;;;;;;15.13;8.87;;;;;;;5.51;70.53;102089.56;5068040;28;20565;-72
2022/04/28 02:40:34;;;;;;;11.63;8.07;;;;;;;5.46;70.79;102088.78;5068587;28;20221;-71
2022/04/28 02:43:00;;;;;;;16.07;8.67;;;;;;;5.41;70.91;102083.59;5068689;28;20209;-74
2022/04/28 02:45:27;;;;;;;11.00;8.10;;;;;;;5.38;71.54;102088.91;5068689;28;20292;-72
2022/04/28 02:47:55;;;;;;;13.43;8.53;;;;;;;5.37;71.63;102091.63;5068457;28;20209;-72
2022/04/28 02:50:22;;;;;;;14.07;9.00;;;;;;;5.33;71.77;102085.50;5068469;28;20225;-71
2022/04/28 02:52:50;;;;;;;12.20;8.73;;;;;;;5.31;72.00;102078.50;5069123;28;20201;-72
2022/04/28 02:55:17;;;;;;;11.70;8.27;;;;;;;5.30;71.92;102079.41;5068243;28;20565;-71
2022/04/28 02:57:44;;;;;;;13.33;8.57;;;;;;;5.29;72.32;102086.47;5068767;28;20216;-72
2022/04/28 03:00:11;;;;;;;11.73;8.50;;;;;;;5.28;72.23;102092.66;5068121;28;20740;-71
2022/04/28 03:02:38;;;;;;;13.93;8.80;;;;;;;5.24;72.35;102091.81;5068524;28;20215;-72
2022/04/28 03:05:07;;;;;;;10.27;8.10;;;;;;;5.24;72.86;102085.66;5068166;28;20208;-72
2022/04/28 03:13:13;;;;;;;12.50;9.13;;;;;;;5.16;72.93;102095.53;5068283;28;20203;-72
2022/04/28 03:15:40;;;;;;;14.13;8.63;;;;;;;5.14;73.17;102100.81;5068067;28;20209;-71
2022/04/28 03:18:06;;;;;;;12.43;8.40;;;;;;;5.12;72.83;102102.63;5067761;28;20682;-72
2022/04/28 03:20:34;;;;;;;13.40;8.60;;;;;;;5.08;73.02;102100.94;5068316;28;20224;-69
2022/04/28 03:23:00;;;;;;;11.50;8.23;;;;;;;5.04;73.31;102090.44;5068091;28;20235;-73
2022/04/28 03:25:27;;;;;;;11.93;7.20;;;;;;;4.99;73.15;102093.19;5067936;28;20205;-72
2022/04/28 03:27:56;;;;;;;11.23;8.17;;;;;;;4.97;73.47;102100.25;5066928;28;20584;-72
2022/04/28 03:30:22;;;;;;;12.53;7.57;;;;;;;4.97;73.40;102100.25;5065993;28;20320;-71
2022/04/28 03:32:49;;;;;;;12.03;7.83;;;;;;;4.95;73.84;102102.03;5065035;28;20212;-72
2022/04/28 03:35:16;;;;;;;10.47;7.30;;;;;;;4.92;73.71;102094.16;5067703;28;20197;-72
2022/04/28 03:37:44;;;;;;;10.97;8.33;;;;;;;4.91;73.65;102102.13;5066975;28;20193;-72
2022/04/28 03:40:12;;;;;;;10.30;8.00;;;;;;;4.87;73.63;102098.66;5066524;28;20319;-69
2022/04/28 03:42:38;;;;;;;12.47;7.57;;;;;;;4.84;74.03;102099.56;5056480;28;20207;-72
2022/04/28 03:45:05;;;;;;;11.53;7.20;;;;;;;4.82;73.89;102098.75;5057517;28;20206;-71
2022/04/28 03:47:33;;;;;;;15.37;8.57;;;;;;;4.80;73.74;102103.19;5055322;28;20240;-71
2022/04/28 03:49:59;;;;;;;12.93;7.33;;;;;;;4.79;73.87;102108.47;5052883;28;20583;-69
2022/04/28 03:52:26;;;;;;;13.10;7.90;;;;;;;4.79;73.97;102104.06;5058903;28;20208;-66
2022/04/28 03:54:54;;;;;;;11.77;7.63;;;;;;;4.76;74.40;102105.88;5073966;28;20211;-70
2022/04/28 03:57:20;;;;;;;12.27;8.10;;;;;;;4.71;73.96;102099.78;5061891;28;20677;-70
2022/04/28 03:59:47;;;;;;;13.60;7.70;;;;;;;4.67;74.07;102104.25;5056817;28;20240;-68
2022/04/28 04:02:13;;;;;;;13.40;8.90;;;;;;;4.63;74.44;102106.97;5064213;28;20209;-70
2022/04/28 04:04:40;;;;;;;12.17;8.30;;;;;;;4.60;74.35;102104.38;5060550;28;20322;-70
2022/04/28 04:07:07;;;;;;;10.87;8.10;;;;;;;4.58;74.29;102107.03;5055472;28;20646;-69
2022/04/28 04:09:33;;;;;;;14.27;8.00;;;;;;;4.55;75.04;102101.81;5060652;28;20224;-71
2022/04/28 04:12:01;;;;;;;10.10;7.63;;;;;;;4.54;74.60;102103.56;5063234;28;20216;-69
2022/04/28 04:14:29;;;;;;;10.57;7.97;;;;;;;4.54;75.21;102105.34;5060999;28;20206;-70
2022/04/28 04:16:56;;;;;;;11.93;7.60;;;;;;;4.51;75.22;102113.28;5071041;28;20292;-70
2022/04/28 04:19:23;;;;;;;11.87;7.63;;;;;;;4.48;75.08;102114.22;5060632;28;20229;-69
2022/04/28 04:21:50;;;;;;;13.03;8.37;;;;;;;4.45;75.26;102116.91;5059527;28;20213;-67
2022/04/28 04:24:16;;;;;;;17.67;8.87;;;;;;;4.45;75.31;102121.31;5057402;28;20220;-69
2022/04/28 04:26:43;;;;;;;11.53;8.13;;;;;;;4.43;75.17;102117.84;5055937;28;20237;-71
2022/04/28 04:29:12;;;;;;;12.27;8.27;;;;;;;4.40;75.25;102123.16;5060791;28;20246;-72
2022/04/28 04:34:23;;;;;;;12.93;7.70;;;;;;;4.30;75.76;102126.81;5058756;28;20804;-72
2022/04/28 04:36:49;;;;;;;12.67;8.23;;;;;;;4.30;75.56;102126.81;5062900;28;20698;-71
2022/04/28 04:39:16;;;;;;;13.93;8.07;;;;;;;4.30;76.11;102122.38;5067388;28;20271;-69
2022/04/28 04:41:42;;;;;;;12.63;7.80;;;;;;;4.32;76.61;102127.66;5060186;28;20721;-69
2022/04/28 04:44:13;;;;;;;15.40;8.77;;;;;;;4.35;76.93;102127.59;5062775;28;20205;-70
2022/04/28 04:46:39;;;;;;;10.93;7.37;;;;;;;4.40;77.16;102131.06;5058468;28;20229;-68
2022/04/28 04:49:06;;;;;;;15.13;7.57;;;;;;;4.42;76.52;102129.28;5059035;28;20239;-69
2022/04/28 04:51:32;;;;;;;13.37;8.57;;;;;;;4.44;77.22;102146.84;5057479;28;20205;-69
2022/04/28 04:53:59;;;;;;;16.63;7.93;;;;;;;4.47;76.99;102138.88;5061505;28;20201;-69
2022/04/28 04:56:25;;;;;;;12.93;7.90;;;;;;;4.53;77.70;102137.91;5060546;28;20205;-69
2022/04/28 04:58:52;;;;;;;12.37;7.97;;;;;;;4.58;77.89;102145.75;5063054;28;20225;-69
2022/04/28 05:01:20;;;;;;;17.17;7.90;;;;;;;4.61;77.57;102141.31;5059831;28;20207;-70
2022/04/28 05:03:46;;;;;;;19.43;9.03;;;;;;;4.68;77.76;102149.97;5067571;28;20574;-69
2022/04/28 05:06:13;;;;;;;12.87;8.63;;;;;;;4.75;78.01;102147.25;5067769;28;20232;-70
2022/04/28 05:08:39;;;;;;;11.53;7.10;;;;;;;4.81;78.57;102152.44;5063031;28;20729;-70
2022/04/28 05:11:06;;;;;;;13.23;7.90;;;;;;;4.89;78.68;102165.50;5064510;28;20205;-71
2022/04/28 05:13:32;;;;;;;13.03;7.60;;;;;;;4.96;78.60;102161.00;5076318;28;20205;-70
2022/04/28 05:15:58;;;;;;;14.00;8.57;;;;;;;5.02;78.77;102161.75;5067457;28;20206;-69
2022/04/28 05:18:28;;;;;;;18.13;7.53;;;;;;;5.08;78.36;102155.50;5060775;28;20201;-70
2022/04/28 05:20:54;;;;;;;13.10;8.10;;;;;;;5.13;78.48;102162.47;5076144;28;20195;-68
2022/04/28 05:23:21;;;;;;;13.67;7.87;;;;;;;5.19;79.00;102161.50;5078678;28;20222;-69
2022/04/28 05:25:48;;;;;;;14.80;8.37;;;;;;;5.26;78.69;102160.47;5075511;28;20458;-68
2022/04/28 05:28:14;;;;;;;14.37;7.17;;;;;;;5.32;78.85;102162.16;5057556;28;20225;-70
2022/04/28 05:30:41;;;;;;;17.53;8.30;;;;;;;5.37;78.73;102158.53;5056285;28;20198;-71
2022/04/28 05:33:08;;;;;;;17.03;7.47;;;;;;;5.42;78.62;102167.22;5056402;28;20303;-69
2022/04/28 05:35:39;;;;;;;13.43;7.63;;;;;;;5.49;78.54;102166.22;5075086;28;20197;-70
2022/04/28 05:38:06;;;;;;;13.23;7.50;;;;;;;5.56;78.39;102167.84;5069650;28;20201;-71
2022/04/28 05:40:32;;;;;;;13.93;7.60;;;;;;;5.65;78.38;102173.88;5070282;28;20862;-70
2022/04/28 05:45:43;;;;;;;14.27;7.97;;;;;;;5.82;78.13;102170.00;5079281;28;20207;-69
2022/04/28 05:48:10;;;;;;;14.50;8.00;;;;;;;5.95;77.94;102177.72;5069889;28;20229;-70
2022/04/28 05:50:39;;;;;;;15.57;8.60;;;;;;;6.04;78.28;102170.50;5069835;28;20224;-70
2022/04/28 05:53:05;;;;;;;12.83;7.47;;;;;;;6.15;77.94;102170.25;5069734;28;20212;-69
2022/04/28 05:55:32;;;;;;;19.00;8.07;;;;;;;6.26;77.68;102184.16;5069816;28;20196;-69
2022/04/28 05:57:59;;;;;;;15.23;7.97;;;;;;;6.35;77.63;102175.13;5069442;28;20681;-71
2022/04/28 06:00:26;;;;;;;13.90;8.53;;;;;;;6.44;77.11;102183.75;5069686;28;20250;-69
2022/04/28 06:02:53;;;;;;;13.07;7.60;;;;;;;6.54;76.99;102187.94;5066548;28;20198;-70
2022/04/28 06:05:20;;;;;;;14.70;7.73;;;;;;;6.65;76.56;102181.50;5063667;28;20208;-73
2022/04/28 06:07:48;;;;;;;18.83;8.37;;;;;;;6.75;76.25;102189.22;5058597;28;20783;-70
2022/04/28 06:10:14;;;;;;;15.60;7.93;;;;;;;6.87;76.59;102188.06;5094076;22;20220;-70
2022/04/28 06:12:41;;;;;;;15.07;8.63;;;;;;;6.97;76.14;102190.47;5100533;28;20226;-68
2022/04/28 06:15:09;;;;;;;15.00;7.73;;;;;;;7.08;75.72;102190.19;5109801;28;20207;-70
2022/04/28 06:17:36;;;;;;;10.33;7.40;;;;;;;7.20;75.36;102189.88;5109710;28;20199;-70
2022/04/28 06:20:02;;;;;;;11.63;7.33;;;;;;;7.32;75.27;102192.25;5109709;28;20743;-68
2022/04/28 06:22:29;;;;;;;15.37;7.77;;;;;;;7.44;75.24;102188.41;5110118;28;20203;-71
2022/04/28 06:24:58;;;;;;;14.87;8.90;;;;;;;7.56;74.29;102193.38;5105606;28;20201;-71
2022/04/28 06:27:28;;;;;;;16.13;8.47;;;;;;;7.70;74.61;102197.47;5089099;28;20255;-70
2022/04/28 06:29:54;;;;;;;13.77;8.23;;;;;;;7.82;73.95;102195.34;5088229;28;20310;-68
2022/04/28 06:32:21;;;;;;;15.97;7.67;;;;;;;7.93;73.13;102200.34;5101240;28;20215;-68
2022/04/28 06:34:48;;;;;;;12.83;7.70;;;;;;;8.04;73.08;102200.06;5106948;28;20201;-70
2022/04/28 06:37:15;;;;;;;11.57;8.13;;;;;;;8.18;72.80;102201.41;5089330;28;20208;-68
2022/04/28 06:39:41;;;;;;;13.30;8.23;;;;;;;8.31;72.98;102205.44;5089479;28;20223;-68
2022/04/28 06:42:10;;;;;;;14.73;8.43;;;;;;;8.46;72.09;102205.94;5089162;28;20201;-68
2022/04/28 06:44:36;;;;;;;15.07;7.77;;;;;;;8.59;70.99;102209.97;5089198;28;20230;-68
2022/04/28 06:47:05;;;;;;;17.30;7.67;;;;;;;8.72;70.55;102210.47;5087647;28;20228;-68
2022/04/28 06:49:31;;;;;;;9.30;7.20;;;;;;;8.81;70.30;102205.72;5089150;28;20306;-68
2022/04/28 06:51:58;;;;;;;14.40;7.77;;;;;;;8.93;69.73;102209.81;5089231;28;20380;-68
2022/04/28 06:54:24;;;;;;;15.97;8.10;;;;;;;9.05;69.20;102207.63;5088284;28;20205;-69
2022/04/28 06:56:51;;;;;;;19.57;7.57;;;;;;;9.18;68.01;102201.88;5076482;28;20205;-68
2022/04/28 06:59:20;;;;;;;15.80;7.57;;;;;;;9.29;67.11;102208.59;5075772;28;20228;-69
2022/04/28 07:01:47;;;;;;;16.00;7.97;;;;;;;9.42;66.88;102208.19;5075319;28;20295;-69
2022/04/28 07:04:13;;;;;;;14.33;8.43;;;;;;;9.55;66.36;102214.81;5075735;28;20210;-69
2022/04/28 07:06:40;;;;;;;9.90;7.07;;;;;;;9.66;65.98;102213.56;5082594;28;20205;-70
2022/04/28 07:09:06;;;;;;;19.17;8.37;;;;;;;9.78;64.62;102206.06;5078260;28;20227;-69
2022/04/28 07:11:33;;;;;;;14.70;5.77;;;;;;;9.87;64.22;102211.91;5073018;28;20201;-69
2022/04/28 07:13:59;;;;;;;10.67;6.50;;;;;;;9.96;63.60;102213.38;5072915;28;20200;-68
2022/04/28 07:16:27;;;;;;;10.83;6.50;;;;;;;10.06;63.19;102214.78;5081654;28;20209;-71
2022/04/28 07:18:53;;;;;;;10.53;7.07;;;;;;;10.15;62.19;102222.44;5076369;28;20228;-73
2022/04/28 07:21:20;;;;;;;11.83;6.77;;;;;;;10.26;62.62;102219.41;5076672;28;20207;-73
2022/04/28 07:23:46;;;;;;;11.50;6.67;;;;;;;10.36;61.51;102215.50;5073042;28;20209;-73
2022/04/28 07:26:13;;;;;;;6.73;5.33;;;;;;;10.46;60.99;102218.66;5075466;28;20214;-73
2022/04/28 07:28:39;;;;;;;12.93;6.70;;;;;;;10.55;60.36;102226.31;5090360;28;20417;-73
2022/04/28 07:31:06;;;;;;;11.90;7.47;;;;;;;10.66;60.42;102219.63;5076963;28;20208;-73
2022/04/28 07:33:34;;;;;;;12.83;7.63;;;;;;;10.77;59.64;102225.41;5085388;28;20209;-73
2022/04/28 07:36:00;;;;;;;13.17;8.27;;;;;;;10.89;59.86;102224.06;5075223;28;20208;-73
2022/04/28 07:38:27;;;;;;;15.93;7.53;;;;;;;11.03;59.77;102218.19;5078007;28;20212;-73
2022/04/28 07:40:55;;;;;;;14.43;8.00;;;;;;;11.19;59.26;102229.97;5085133;28;20233;-73
2022/04/28 07:43:22;;;;;;;13.23;7.13;;;;;;;11.30;58.98;102224.19;5080314;28;20262;-73
2022/04/28 07:45:49;;;;;;;11.67;7.80;;;;;;;11.40;58.31;102229.09;5082523;28;20200;-73
2022/04/28 07:48:15;;;;;;;15.83;7.20;;;;;;;11.51;58.04;102220.63;5090949;28;20592;-74
2022/04/28 07:50:43;;;;;;;15.60;7.87;;;;;;;11.61;57.81;102221.97;5086371;28;20222;-74
2022/04/28 07:53:10;;;;;;;10.20;7.13;;;;;;;11.73;57.61;102224.13;5089500;28;20757;-73
2022/04/28 07:55:36;;;;;;;13.57;7.03;;;;;;;11.87;57.34;102212.84;5091363;28;20204;-74
2022/04/28 07:58:03;;;;;;;12.37;6.83;;;;;;;12.00;56.98;102221.22;5091778;28;20214;-73
2022/04/28 08:00:29;;;;;;;11.03;6.77;;;;;;;12.09;55.72;102219.00;5070096;28;20219;-74
2022/04/28 08:02:56;;;;;;;11.70;6.33;;;;;;;12.16;56.09;102228.47;5083833;28;20669;-74
2022/04/28 08:05:22;;;;;;;12.73;7.13;;;;;;;12.27;55.52;102213.75;5091361;28;20218;-73
2022/04/28 08:07:50;;;;;;;9.10;6.60;;;;;;;12.35;54.55;102219.63;5091699;28;20231;-74
2022/04/28 08:10:17;;;;;;;10.40;5.93;;;;;;;12.43;54.22;102225.47;5091547;28;20231;-74
2022/04/28 08:12:43;;;;;;;13.43;7.27;;;;;;;12.52;53.62;102233.09;5091723;28;20206;-73
2022/04/28 08:15:10;;;;;;;13.57;6.50;;;;;;;12.59;53.52;102231.84;5087724;28;20592;-74
2022/04/28 08:17:37;;;;;;;8.80;6.30;;;;;;;12.71;53.79;102233.09;5077709;28;20197;-74
2022/04/28 08:20:04;;;;;;;10.00;5.70;;;;;;;12.83;53.57;102236.03;5075789;28;20224;-74
2022/04/28 08:22:31;;;;;;;9.37;5.80;;;;;;;12.94;52.93;102232.84;5085422;28;20298;-74
2022/04/28 08:24:58;;;;;;;11.40;6.00;;;;;;;13.05;51.95;102233.22;5091306;28;20207;-74
2022/04/28 08:27:25;;;;;;;11.43;6.57;;;;;;;13.15;51.99;102234.50;5090730;28;20599;-69
2022/04/28 08:29:52;;;;;;;10.60;6.57;;;;;;;13.26;50.90;102235.78;5090599;28;20737;-70
2022/04/28 08:32:19;;;;;;;13.40;6.50;;;;;;;13.35;51.32;102235.34;5078799;28;20208;-69
2022/04/28 08:34:45;;;;;;;12.10;6.43;;;;;;;13.44;50.71;102238.41;5089295;28;20204;-70
2022/04/28 08:37:12;;;;;;;10.03;6.47;;;;;;;13.54;50.78;102234.34;5084268;28;20309;-74
2022/04/28 08:39:39;;;;;;;8.43;6.37;;;;;;;13.66;50.75;102240.00;5091396;28;20255;-75
2022/04/28 08:42:12;;;;;;;11.90;6.20;;;;;;;13.77;50.57;102235.84;5084099;28;20196;-74
2022/04/28 08:44:38;;;;;;;10.47;5.90;;;;;;;13.88;50.30;102236.16;5083880;28;20207;-75
2022/04/28 08:47:05;;;;;;;10.20;6.40;;;;;;;14.02;50.14;102226.53;5099532;28;20574;-74
2022/04/28 08:49:33;;;;;;;7.67;5.63;;;;;;;14.13;49.35;102233.06;5086176;28;20646;-74
2022/04/28 08:52:00;;;;;;;12.77;7.13;;;;;;;14.24;49.09;102237.84;5090684;28;20666;-75
2022/04/28 08:54:29;;;;;;;12.30;5.93;;;;;;;14.35;48.47;102232.75;5091347;28;20196;-75
2022/04/28 08:56:58;;;;;;;8.47;5.27;;;;;;;14.47;48.31;102239.31;5090248;28;20673;-74
2022/04/28 08:59:26;;;;;;;11.63;5.73;;;;;;;14.58;48.04;102240.47;5082472;28;20219;-74
2022/04/28 09:01:52;;;;;;;8.37;5.83;;;;;;;14.69;47.04;102234.50;5090762;28;20204;-74
2022/04/28 09:04:21;;;;;;;9.37;6.13;;;;;;;14.74;46.96;102231.56;5083340;28;20196;-75
2022/04/28 09:06:51;;;;;;;10.27;6.07;;;;;;;14.78;46.61;102239.34;5085086;28;20201;-73
2022/04/28 09:09:20;;;;;;;12.20;6.67;;;;;;;14.82;46.81;102235.56;5081965;28;20608;-75
2022/04/28 09:11:47;;;;;;;14.40;7.57;;;;;;;14.87;46.46;102248.69;5090665;28;20277;-74
2022/04/28 09:14:15;;;;;;;9.00;6.83;;;;;;;14.92;46.66;102249.31;5086898;28;20247;-75
2022/04/28 09:16:45;;;;;;;12.30;7.53;;;;;;;14.99;46.89;102253.38;5085527;28;20277;-75
2022/04/28 09:19:15;;;;;;;10.10;7.20;;;;;;;15.09;46.92;102245.66;5083583;28;20225;-75
2022/04/28 09:21:42;;;;;;;12.80;8.20;;;;;;;15.18;46.83;102247.84;5070599;28;20251;-75
2022/04/28 09:24:10;;;;;;;11.73;7.57;;;;;;;15.28;46.67;102236.47;5072067;28;20200;-74
2022/04/28 09:26:38;;;;;;;11.43;7.37;;;;;;;15.34;45.46;102243.31;5084252;28;20198;-74
2022/04/28 09:29:06;;;;;;;13.80;9.23;;;;;;;15.42;45.90;102240.16;5088632;28;20229;-75
2022/04/28 09:31:35;;;;;;;11.97;8.57;;;;;;;15.49;46.38;102238.88;5090832;28;20248;-70
2022/04/28 09:34:08;;;;;;;10.07;7.90;;;;;;;15.62;46.20;102237.22;5089141;28;20289;-70
2022/04/28 09:36:35;;;;;;;11.67;8.70;;;;;;;15.75;46.16;102232.00;5080626;28;20213;-70
2022/04/28 09:39:01;;;;;;;13.27;8.03;;;;;;;15.81;45.00;102231.59;5085825;28;20221;-70
2022/04/28 09:44:13;;;;;;;13.10;8.67;;;;;;;15.89;44.93;102232.91;5089962;28;20219;-70
2022/04/28 09:46:41;;;;;;;12.30;8.03;;;;;;;15.93;44.83;102229.06;5089942;28;20763;-70
2022/04/28 09:49:10;;;;;;;13.97;8.20;;;;;;;15.96;44.71;102226.16;5084603;28;20238;-69
2022/04/28 09:51:39;;;;;;;13.63;8.30;;;;;;;16.00;44.39;102231.38;5089582;28;20202;-70
2022/04/28 09:54:09;;;;;;;14.30;9.67;;;;;;;16.02;44.23;102230.31;5090077;28;20283;-70
2022/04/28 09:56:37;;;;;;;14.63;9.17;;;;;;;16.07;44.26;102220.16;5089094;28;20203;-70
2022/04/28 09:59:05;;;;;;;16.13;9.27;;;;;;;16.12;44.34;102218.03;5088584;28;20222;-70
2022/04/28 10:01:33;;;;;;;15.40;8.83;;;;;;;16.17;44.12;102223.13;5089597;28;20215;-70
2022/04/28 10:04:00;;;;;;;16.83;9.23;;;;;;;16.22;44.08;102212.97;5089352;28;20684;-69
2022/04/28 10:06:28;;;;;;;13.47;9.27;;;;;;;16.30;43.89;102216.88;5089153;28;20213;-70
2022/04/28 10:08:56;;;;;;;13.53;8.63;;;;;;;16.34;43.97;102217.56;5088972;28;20239;-70
2022/04/28 10:11:24;;;;;;;14.03;8.63;;;;;;;16.42;44.09;102215.28;5086891;28;20207;-71
2022/04/28 10:13:52;;;;;;;11.10;7.67;;;;;;;16.47;44.10;102212.31;5089480;28;20710;-75
2022/04/28 10:16:22;;;;;;;10.77;7.57;;;;;;;16.52;42.98;102212.84;5081625;28;20215;-74
2022/04/28 10:18:53;;;;;;;13.67;8.20;;;;;;;16.53;43.76;102206.50;5089300;28;20219;-75
2022/04/28 10:21:23;;;;;;;13.13;8.63;;;;;;;16.63;43.92;102211.25;5088347;28;20219;-74
2022/04/28 10:32:53;;;;;;;11.50;8.13;;;;;;;16.80;42.79;102212.84;5088680;28;20211;-75
2022/04/28 10:35:33;;;;;;;13.73;8.93;;;;;;;16.85;42.98;102210.72;5089206;28;20254;-75
2022/04/28 10:38:05;;;;;;;14.70;7.87;;;;;;;16.90;42.79;102218.50;5088817;28;20820;-75
2022/04/28 10:40:38;;;;;;;17.23;9.33;;;;;;;16.90;41.98;102219.34;5088673;28;20249;-75
2022/04/28 10:43:05;;;;;;;11.30;8.00;;;;;;;16.92;41.95;102216.56;5088739;28;20212;-75
2022/04/28 10:45:40;;;;;;;11.03;7.83;;;;;;;16.89;41.84;102212.25;5089438;28;20203;-74
2022/04/28 10:48:25;;;;;;;10.83;8.20;;;;;;;16.91;41.99;102199.56;5089230;28;20228;-75
2022/04/28 10:51:16;;;;;;;13.20;8.00;;;;;;;16.93;41.80;102208.41;5084781;28;20236;-75
2022/04/28 10:54:09;;;;;;;10.23;8.00;;;;;;;17.00;41.62;102206.19;5078685;28;20448;-75
2022/04/28 10:57:03;;;;;;;11.73;7.87;;;;;;;17.10;41.81;102199.22;5081916;28;20510;-75
2022/04/28 10:59:34;;;;;;;10.10;7.60;;;;;;;17.23;41.67;102202.81;5076853;28;20693;-75
2022/04/28 11:02:32;;;;;;;12.77;7.33;;;;;;;17.32;41.68;102206.72;5074474;28;20206;-75
2022/04/28 11:05:03;;;;;;;12.60;8.20;;;;;;;17.39;41.82;102205.34;5077072;28;20202;-75
2022/04/28 11:07:31;;;;;;;12.70;7.93;;;;;;;17.45;41.70;102202.25;5080765;28;20197;-75
2022/04/28 11:10:00;;;;;;;10.97;8.07;;;;;;;17.48;41.33;102210.13;5087496;28;20315;-75
2022/04/28 11:12:35;;;;;;;10.03;7.40;;;;;;;17.48;41.49;102193.97;5077955;28;20217;-73
2022/04/28 11:15:05;;;;;;;11.27;7.63;;;;;;;17.52;40.77;102192.78;5077626;28;20208;-75
2022/04/28 11:17:33;;;;;;;8.93;6.90;;;;;;;17.56;41.42;102191.59;5080989;28;20206;-75
2022/04/28 11:20:04;;;;;;;8.57;7.17;;;;;;;17.61;41.46;102185.88;5080495;28;20244;-75
2022/04/28 11:22:30;;;;;;;10.87;7.80;;;;;;;17.61;41.34;102189.44;5082268;28;20208;-75
2022/04/28 11:24:57;;;;;;;10.43;7.17;;;;;;;17.62;41.26;102187.63;5081667;28;20385;-75
2022/04/28 11:27:27;;;;;;;9.33;7.53;;;;;;;17.64;41.40;102185.72;5087870;28;20255;-75
2022/04/28 11:29:58;;;;;;;13.77;8.00;;;;;;;17.64;41.35;102188.41;5087759;28;20225;-75
2022/04/28 11:32:25;;;;;;;10.57;7.20;;;;;;;17.64;41.37;102183.03;5088036;28;20301;-75
2022/04/28 11:34:52;;;;;;;11.13;8.53;;;;;;;17.59;41.05;102179.75;5087697;28;20203;-75
2022/04/28 11:37:23;;;;;;;15.10;8.17;;;;;;;17.53;41.28;102181.03;5087407;28;20204;-75
2022/04/28 11:39:52;;;;;;;10.37;7.63;;;;;;;17.51;41.32;102182.97;5086869;28;20312;-75
2022/04/28 11:42:19;;;;;;;10.97;8.13;;;;;;;17.53;41.82;102181.03;5074949;28;20213;-75
2022/04/28 11:44:48;;;;;;;12.57;7.83;;;;;;;17.54;41.68;102176.53;5074230;28;20299;-75
2022/04/28 11:47:15;;;;;;;11.83;7.77;;;;;;;17.61;41.62;102177.81;5079098;28;20292;-75
2022/04/28 11:49:42;;;;;;;11.70;8.23;;;;;;;17.69;41.42;102164.72;5087569;28;20228;-75
2022/04/28 11:52:21;;;;;;;13.97;9.93;;;;;;;17.79;41.19;102173.88;5080677;28;20201;-75
2022/04/28 11:54:51;;;;;;;10.53;7.80;;;;;;;17.84;41.03;102168.19;5075848;28;20211;-73
2022/04/28 11:57:19;;;;;;;9.17;8.07;;;;;;;17.85;41.02;102176.16;5078727;28;20256;-74